createdAt,value
2022-10-11T00:00:03.793Z,79.82
2022-10-11T00:00:13.843Z,79.86
2022-10-11T00:00:23.893Z,79.82
2022-10-11T00:00:33.957Z,79.82
2022-10-11T00:00:44.002Z,79.86
2022-10-11T00:00:54.147Z,79.86
2022-10-11T00:01:04.081Z,79.96
2022-10-11T00:01:14.183Z,79.96
2022-10-11T00:01:24.268Z,79.96
2022-10-11T00:01:34.491Z,79.96
2022-10-11T00:01:44.471Z,79.96
2022-10-11T00:01:54.542Z,79.96
2022-10-11T00:02:04.583Z,79.96
2022-10-11T00:02:14.616Z,79.96
2022-10-11T00:02:26.464Z,79.96
2022-10-11T00:02:34.750Z,80.07
2022-10-11T00:02:44.819Z,80.07
2022-10-11T00:02:54.879Z,80.07
2022-10-11T00:03:04.940Z,80.16
2022-10-11T00:03:14.998Z,80.16
2022-10-11T00:03:25.037Z,80.16
2022-10-11T00:03:35.110Z,80.16
2022-10-11T00:03:45.152Z,80.16
2022-10-11T00:03:55.188Z,80.16
2022-10-11T00:04:05.237Z,80.16
2022-10-11T00:04:15.278Z,80.27
2022-10-11T00:04:25.389Z,80.16
2022-10-11T00:04:35.449Z,80.16
2022-10-11T00:04:45.579Z,80.27
2022-10-11T00:04:55.649Z,80.16
2022-10-11T00:05:05.686Z,80.27
2022-10-11T00:05:15.730Z,80.27
2022-10-11T00:05:25.766Z,80.07
2022-10-11T00:05:35.819Z,79.86
2022-10-11T00:05:45.849Z,79.75
2022-10-11T00:05:55.897Z,79.66
2022-10-11T00:06:06.620Z,79.66
2022-10-11T00:06:16.017Z,79.75
2022-10-11T00:06:26.072Z,79.75
2022-10-11T00:06:36.116Z,79.86
2022-10-11T00:06:46.159Z,79.96
2022-10-11T00:06:56.202Z,79.96
2022-10-11T00:07:06.248Z,79.96
2022-10-11T00:07:16.309Z,79.96
2022-10-11T00:07:26.357Z,79.96
2022-10-11T00:07:36.416Z,79.96
2022-10-11T00:07:46.488Z,79.96
2022-10-11T00:07:56.538Z,79.96
2022-10-11T00:08:06.592Z,79.96
2022-10-11T00:08:16.639Z,79.96
2022-10-11T00:08:26.680Z,79.96
2022-10-11T00:08:36.721Z,79.96
2022-10-11T00:08:46.759Z,79.86
2022-10-11T00:08:56.789Z,79.96
2022-10-11T00:09:06.840Z,79.96
2022-10-11T00:09:16.891Z,79.96
2022-10-11T00:09:26.931Z,79.96
2022-10-11T00:09:36.997Z,79.96
2022-10-11T00:09:47.040Z,79.96
2022-10-11T00:09:57.088Z,79.96
2022-10-11T00:10:07.124Z,79.96
2022-10-11T00:10:17.160Z,79.96
2022-10-11T00:10:27.209Z,79.96
2022-10-11T00:10:37.258Z,79.96
2022-10-11T00:10:47.319Z,80.07
2022-10-11T00:10:57.359Z,79.96
2022-10-11T00:11:07.432Z,79.96
2022-10-11T00:11:17.476Z,80.00
2022-10-11T00:11:27.529Z,79.96
2022-10-11T00:11:37.579Z,79.96
2022-10-11T00:11:47.629Z,80.00
2022-10-11T00:11:57.668Z,80.00
2022-10-11T00:12:07.708Z,80.10
2022-10-11T00:12:17.761Z,80.10
2022-10-11T00:12:27.791Z,80.20
2022-10-11T00:12:37.846Z,80.20
2022-10-11T00:12:47.899Z,80.20
2022-10-11T00:12:57.947Z,80.20
2022-10-11T00:13:07.990Z,80.30
2022-10-11T00:13:18.039Z,80.30
2022-10-11T00:13:28.076Z,80.30
2022-10-11T00:13:38.128Z,80.30
2022-10-11T00:13:48.189Z,80.30
2022-10-11T00:13:58.251Z,80.41
2022-10-11T00:14:08.307Z,80.41
2022-10-11T00:14:18.356Z,80.41
2022-10-11T00:14:28.399Z,80.41
2022-10-11T00:14:38.468Z,80.41
2022-10-11T00:14:48.518Z,80.41
2022-10-11T00:14:58.579Z,80.30
2022-10-11T00:15:08.619Z,80.30
2022-10-11T00:15:18.668Z,80.30
2022-10-11T00:15:28.809Z,80.20
2022-10-11T00:15:38.909Z,80.20
2022-10-11T00:15:48.959Z,80.20
2022-10-11T00:15:59.018Z,80.30
2022-10-11T00:16:09.157Z,80.30
2022-10-11T00:16:19.210Z,80.20
2022-10-11T00:16:29.278Z,80.20
2022-10-11T00:16:39.357Z,80.20
2022-10-11T00:16:49.409Z,80.20
2022-10-11T00:16:59.458Z,80.20
2022-10-11T00:17:09.527Z,80.30
2022-10-11T00:17:19.596Z,80.30
2022-10-11T00:17:29.659Z,80.30
2022-10-11T00:17:39.706Z,80.20
2022-10-11T00:17:49.758Z,80.20
2022-10-11T00:18:04.478Z,80.10
2022-10-11T00:18:10.786Z,80.20
2022-10-11T00:18:20.837Z,80.20
2022-10-11T00:18:30.888Z,80.20
2022-10-11T00:18:40.937Z,80.30
2022-10-11T00:18:50.989Z,80.30
2022-10-11T00:19:01.028Z,80.30
2022-10-11T00:19:11.093Z,80.30
2022-10-11T00:19:21.150Z,80.30
2022-10-11T00:19:31.188Z,80.30
2022-10-11T00:19:41.248Z,80.30
2022-10-11T00:19:51.310Z,80.41
2022-10-11T00:20:01.365Z,80.41
2022-10-11T00:20:11.418Z,80.41
2022-10-11T00:20:21.478Z,80.41
2022-10-11T00:20:31.518Z,80.41
2022-10-11T00:20:41.557Z,80.41
2022-10-11T00:20:51.597Z,80.41
2022-10-11T00:21:01.648Z,80.41
2022-10-11T00:21:11.698Z,80.41
2022-10-11T00:21:21.748Z,80.41
2022-10-11T00:21:31.819Z,80.51
2022-10-11T00:21:41.945Z,80.51
2022-10-11T00:21:51.964Z,80.51
2022-10-11T00:22:02.013Z,80.51
2022-10-11T00:22:12.057Z,80.51
2022-10-11T00:22:22.127Z,80.51
2022-10-11T00:22:32.180Z,80.51
2022-10-11T00:22:42.268Z,80.61
2022-10-11T00:22:52.317Z,80.61
2022-10-11T00:23:02.359Z,80.61
2022-10-11T00:23:12.415Z,80.61
2022-10-11T00:23:22.465Z,80.61
2022-10-11T00:23:32.498Z,80.61
2022-10-11T00:23:42.529Z,80.61
2022-10-11T00:23:52.586Z,80.61
2022-10-11T00:24:02.637Z,80.61
2022-10-11T00:24:12.701Z,80.71
2022-10-11T00:24:22.748Z,80.71
2022-10-11T00:24:32.797Z,80.71
2022-10-11T00:24:42.857Z,80.75
2022-10-11T00:24:52.905Z,80.82
2022-10-11T00:25:02.956Z,80.82
2022-10-11T00:25:13.008Z,80.85
2022-10-11T00:25:23.047Z,80.85
2022-10-11T00:25:33.088Z,80.85
2022-10-11T00:25:43.200Z,80.82
2022-10-11T00:25:53.277Z,80.85
2022-10-11T00:26:03.867Z,80.85
2022-10-11T00:26:13.387Z,80.85
2022-10-11T00:26:23.427Z,80.85
2022-10-11T00:26:33.481Z,80.96
2022-10-11T00:26:46.780Z,80.96
2022-10-11T00:26:53.607Z,80.96
2022-10-11T00:27:03.736Z,80.96
2022-10-11T00:27:13.789Z,80.96
2022-10-11T00:27:23.888Z,80.96
2022-10-11T00:27:34.008Z,80.96
2022-10-11T00:27:44.059Z,81.05
2022-10-11T00:27:54.099Z,80.96
2022-10-11T00:28:04.157Z,81.05
2022-10-11T00:28:14.253Z,81.05
2022-10-11T00:28:24.363Z,81.05
2022-10-11T00:28:34.447Z,81.05
2022-10-11T00:28:44.530Z,81.05
2022-10-11T00:28:54.634Z,81.05
2022-10-11T00:29:04.708Z,81.05
2022-10-11T00:29:14.761Z,81.05
2022-10-11T00:29:24.825Z,81.05
2022-10-11T00:29:34.868Z,81.05
2022-10-11T00:29:44.917Z,81.05
2022-10-11T00:29:54.967Z,81.05
2022-10-11T00:30:05.021Z,81.05
2022-10-11T00:30:15.069Z,81.05
2022-10-11T00:30:25.167Z,81.05
2022-10-11T00:30:35.217Z,81.05
2022-10-11T00:30:45.287Z,81.05
2022-10-11T00:30:55.335Z,81.16
2022-10-11T00:31:05.791Z,81.16
2022-10-11T00:31:15.508Z,81.16
2022-10-11T00:31:25.550Z,81.16
2022-10-11T00:31:36.019Z,81.16
2022-10-11T00:31:45.657Z,81.16
2022-10-11T00:31:55.687Z,81.16
2022-10-11T00:32:05.728Z,81.16
2022-10-11T00:32:15.795Z,81.16
2022-10-11T00:32:25.828Z,81.16
2022-10-11T00:32:35.879Z,81.16
2022-10-11T00:32:45.956Z,81.16
2022-10-11T00:32:56.016Z,81.16
2022-10-11T00:33:06.077Z,81.16
2022-10-11T00:33:16.127Z,81.16
2022-10-11T00:33:26.197Z,81.16
2022-10-11T00:33:36.267Z,81.16
2022-10-11T00:33:46.347Z,81.16
2022-10-11T00:33:56.467Z,81.16
2022-10-11T00:34:06.511Z,81.16
2022-10-11T00:34:16.565Z,81.16
2022-10-11T00:34:26.648Z,81.16
2022-10-11T00:34:36.705Z,81.16
2022-10-11T00:34:46.787Z,81.26
2022-10-11T00:34:56.844Z,81.16
2022-10-11T00:35:06.883Z,81.16
2022-10-11T00:35:16.937Z,81.26
2022-10-11T00:35:26.988Z,81.16
2022-10-11T00:35:37.038Z,81.16
2022-10-11T00:35:47.086Z,81.16
2022-10-11T00:35:57.187Z,81.16
2022-10-11T00:36:07.773Z,81.16
2022-10-11T00:36:17.307Z,81.16
2022-10-11T00:36:27.377Z,81.16
2022-10-11T00:36:37.435Z,81.16
2022-10-11T00:36:47.486Z,81.16
2022-10-11T00:36:57.538Z,81.16
2022-10-11T00:37:07.596Z,81.16
2022-10-11T00:37:17.747Z,81.16
2022-10-11T00:37:27.789Z,81.16
2022-10-11T00:37:37.839Z,81.16
2022-10-11T00:37:47.897Z,81.16
2022-10-11T00:37:57.973Z,81.26
2022-10-11T00:38:08.027Z,81.26
2022-10-11T00:38:18.089Z,81.26
2022-10-11T00:38:28.117Z,81.26
2022-10-11T00:38:38.168Z,81.26
2022-10-11T00:38:48.228Z,81.26
2022-10-11T00:38:58.275Z,81.26
2022-10-11T00:39:08.346Z,81.16
2022-10-11T00:39:18.397Z,81.26
2022-10-11T00:39:28.446Z,81.26
2022-10-11T00:39:38.499Z,81.26
2022-10-11T00:39:48.537Z,81.26
2022-10-11T00:39:58.587Z,81.26
2022-10-11T00:40:08.626Z,81.26
2022-10-11T00:40:18.695Z,81.26
2022-10-11T00:40:28.737Z,81.26
2022-10-11T00:40:38.795Z,81.26
2022-10-11T00:40:48.847Z,81.26
2022-10-11T00:40:58.908Z,81.26
2022-10-11T00:41:08.958Z,81.26
2022-10-11T00:41:19.032Z,81.26
2022-10-11T00:41:29.071Z,81.26
2022-10-11T00:41:39.117Z,81.26
2022-10-11T00:41:49.158Z,81.26
2022-10-11T00:41:59.206Z,81.26
2022-10-11T00:42:09.236Z,81.26
2022-10-11T00:42:19.300Z,81.26
2022-10-11T00:42:29.336Z,81.26
2022-10-11T00:42:39.398Z,81.26
2022-10-11T00:42:49.439Z,81.26
2022-10-11T00:42:59.476Z,81.26
2022-10-11T00:43:09.508Z,81.26
2022-10-11T00:43:19.606Z,81.26
2022-10-11T00:43:29.744Z,81.26
2022-10-11T00:43:39.786Z,81.26
2022-10-11T00:43:49.816Z,81.26
2022-10-11T00:43:59.867Z,81.26
2022-10-11T00:44:09.933Z,81.26
2022-10-11T00:44:19.989Z,81.26
2022-10-11T00:44:30.065Z,81.26
2022-10-11T00:44:40.116Z,81.26
2022-10-11T00:44:50.167Z,81.26
2022-10-11T00:45:00.227Z,81.26
2022-10-11T00:45:10.296Z,81.26
2022-10-11T00:45:20.364Z,81.26
2022-10-11T00:45:30.448Z,81.26
2022-10-11T00:45:40.496Z,81.26
2022-10-11T00:45:50.556Z,81.26
2022-10-11T00:46:00.623Z,81.37
2022-10-11T00:46:10.666Z,81.37
2022-10-11T00:46:20.716Z,81.26
2022-10-11T00:46:30.830Z,81.26
2022-10-11T00:46:40.888Z,81.26
2022-10-11T00:46:54.970Z,81.16
2022-10-11T00:47:01.076Z,81.26
2022-10-11T00:47:11.195Z,81.26
2022-10-11T00:47:21.246Z,81.26
2022-10-11T00:47:31.316Z,81.30
2022-10-11T00:47:41.394Z,81.30
2022-10-11T00:47:51.436Z,81.30
2022-10-11T00:48:01.486Z,81.30
2022-10-11T00:48:11.535Z,81.30
2022-10-11T00:48:21.584Z,81.30
2022-10-11T00:48:31.636Z,81.30
2022-10-11T00:48:41.701Z,81.30
2022-10-11T00:48:51.736Z,81.30
2022-10-11T00:49:01.777Z,81.40
2022-10-11T00:49:11.856Z,81.40
2022-10-11T00:49:21.905Z,81.40
2022-10-11T00:49:31.995Z,81.40
2022-10-11T00:49:42.045Z,81.40
2022-10-11T00:49:52.097Z,81.40
2022-10-11T00:50:02.157Z,81.40
2022-10-11T00:50:12.215Z,81.51
2022-10-11T00:50:22.273Z,81.40
2022-10-11T00:50:32.425Z,81.51
2022-10-11T00:50:42.475Z,81.51
2022-10-11T00:50:52.534Z,81.51
2022-10-11T00:51:03.059Z,81.51
2022-10-11T00:51:12.626Z,81.51
2022-10-11T00:51:22.717Z,81.51
2022-10-11T00:51:32.779Z,81.51
2022-10-11T00:51:42.826Z,81.51
2022-10-11T00:51:52.875Z,81.51
2022-10-11T00:52:02.924Z,81.51
2022-10-11T00:52:13.009Z,81.60
2022-10-11T00:52:23.127Z,81.60
2022-10-11T00:52:33.186Z,81.60
2022-10-11T00:52:43.254Z,81.60
2022-10-11T00:52:53.309Z,81.71
2022-10-11T00:53:03.358Z,81.71
2022-10-11T00:53:13.398Z,81.71
2022-10-11T00:53:23.444Z,81.71
2022-10-11T00:53:33.505Z,81.71
2022-10-11T00:53:43.545Z,81.81
2022-10-11T00:53:53.594Z,81.81
2022-10-11T00:54:03.638Z,81.81
2022-10-11T00:54:13.714Z,81.91
2022-10-11T00:54:23.777Z,81.91
2022-10-11T00:54:33.834Z,81.91
2022-10-11T00:54:43.926Z,81.91
2022-10-11T00:54:53.995Z,81.91
2022-10-11T00:55:04.035Z,82.01
2022-10-11T00:55:14.127Z,82.01
2022-10-11T00:55:24.167Z,82.01
2022-10-11T00:55:34.214Z,82.01
2022-10-11T00:55:44.257Z,82.01
2022-10-11T00:55:54.316Z,82.12
2022-10-11T00:56:04.727Z,82.12
2022-10-11T00:56:14.514Z,82.12
2022-10-11T00:56:24.555Z,82.12
2022-10-11T00:56:34.615Z,82.12
2022-10-11T00:56:44.666Z,82.22
2022-10-11T00:56:54.706Z,82.22
2022-10-11T00:57:04.747Z,82.22
2022-10-11T00:57:14.784Z,82.22
2022-10-11T00:57:24.838Z,82.22
2022-10-11T00:57:34.885Z,82.22
2022-10-11T00:57:44.939Z,82.22
2022-10-11T00:57:54.987Z,82.22
2022-10-11T00:58:05.036Z,82.22
2022-10-11T00:58:15.075Z,82.32
2022-10-11T00:58:25.118Z,82.36
2022-10-11T00:58:35.178Z,82.36
2022-10-11T00:58:45.235Z,82.32
2022-10-11T00:58:55.285Z,82.32
2022-10-11T00:59:05.347Z,82.36
2022-10-11T00:59:15.409Z,82.46
2022-10-11T00:59:25.443Z,82.46
2022-10-11T00:59:35.494Z,82.42
2022-10-11T00:59:45.557Z,82.42
2022-10-11T00:59:55.595Z,82.46
2022-10-11T01:00:05.665Z,82.46
2022-10-11T01:00:15.736Z,82.56
2022-10-11T01:00:25.794Z,82.46
2022-10-11T01:00:35.843Z,82.42
2022-10-11T01:00:45.914Z,82.46
2022-10-11T01:00:55.991Z,82.46
2022-10-11T01:01:06.091Z,82.56
2022-10-11T01:01:16.292Z,82.56
2022-10-11T01:01:26.265Z,82.56
2022-10-11T01:01:36.456Z,82.56
2022-10-11T01:01:46.637Z,82.56
2022-10-11T01:01:56.563Z,82.56
2022-10-11T01:02:06.627Z,82.56
2022-10-11T01:02:16.648Z,82.67
2022-10-11T01:02:26.675Z,82.56
2022-10-11T01:02:36.695Z,82.56
2022-10-11T01:02:46.722Z,82.67
2022-10-11T01:02:56.745Z,82.56
2022-10-11T01:03:06.763Z,82.56
2022-10-11T01:03:16.775Z,82.56
2022-10-11T01:03:26.803Z,82.67
2022-10-11T01:03:36.885Z,82.67
2022-10-11T01:03:46.896Z,82.67
2022-10-11T01:03:56.924Z,82.67
2022-10-11T01:04:06.968Z,82.67
2022-10-11T01:04:17.012Z,82.67
2022-10-11T01:04:27.097Z,82.67
2022-10-11T01:04:37.127Z,82.67
2022-10-11T01:04:47.225Z,82.67
2022-10-11T01:05:11.647Z,82.67
2022-10-11T01:05:28.266Z,82.77
2022-10-11T01:05:29.312Z,82.77
2022-10-11T01:05:30.653Z,82.77
2022-10-11T01:05:40.243Z,82.77
2022-10-11T01:05:50.276Z,82.77
2022-10-11T01:06:00.317Z,82.87
2022-10-11T01:06:10.335Z,82.87
2022-10-11T01:06:20.353Z,82.87
2022-10-11T01:06:30.365Z,82.87
2022-10-11T01:06:40.404Z,82.87
2022-10-11T01:06:50.427Z,82.87
2022-10-11T01:07:00.465Z,82.87
2022-10-11T01:07:10.475Z,82.87
2022-10-11T01:07:20.485Z,82.97
2022-10-11T01:07:30.506Z,82.97
2022-10-11T01:07:40.546Z,83.07
2022-10-11T01:07:50.568Z,83.07
2022-10-11T01:08:00.601Z,83.07
2022-10-11T01:08:10.632Z,82.97
2022-10-11T01:08:20.666Z,82.97
2022-10-11T01:08:30.724Z,82.97
2022-10-11T01:08:40.752Z,82.97
2022-10-11T01:08:50.773Z,82.97
2022-10-11T01:09:00.794Z,82.97
2022-10-11T01:09:10.815Z,82.87
2022-10-11T01:09:20.865Z,82.87
2022-10-11T01:09:30.945Z,82.87
2022-10-11T01:09:41.028Z,82.87
2022-10-11T01:09:51.056Z,82.87
2022-10-11T01:10:01.084Z,82.87
2022-10-11T01:10:11.106Z,82.87
2022-10-11T01:10:21.139Z,82.87
2022-10-11T01:10:31.154Z,82.87
2022-10-11T01:10:41.174Z,82.77
2022-10-11T01:10:51.245Z,82.77
2022-10-11T01:11:01.264Z,82.77
2022-10-11T01:11:11.294Z,82.77
2022-10-11T01:11:21.325Z,82.77
2022-10-11T01:11:31.356Z,82.77
2022-10-11T01:11:41.386Z,82.77
2022-10-11T01:11:51.404Z,82.77
2022-10-11T01:12:01.457Z,82.77
2022-10-11T01:12:11.475Z,82.77
2022-10-11T01:12:21.503Z,82.87
2022-10-11T01:12:31.552Z,82.77
2022-10-11T01:12:41.603Z,82.87
2022-10-11T01:12:51.656Z,82.87
2022-10-11T01:13:01.732Z,82.87
2022-10-11T01:13:11.794Z,82.87
2022-10-11T01:13:21.842Z,82.87
2022-10-11T01:13:31.914Z,82.87
2022-10-11T01:13:41.961Z,82.97
2022-10-11T01:13:52.009Z,82.97
2022-10-11T01:14:02.056Z,82.97
2022-10-11T01:14:12.104Z,82.97
2022-10-11T01:14:22.184Z,82.97
2022-10-11T01:14:32.236Z,82.97
2022-10-11T01:14:42.318Z,82.97
2022-10-11T01:14:52.374Z,82.97
2022-10-11T01:15:02.433Z,83.07
2022-10-11T01:15:12.492Z,83.07
2022-10-11T01:15:22.543Z,83.07
2022-10-11T01:15:32.624Z,83.07
2022-10-11T01:15:42.685Z,83.07
2022-10-11T01:15:52.733Z,83.18
2022-10-11T01:16:03.175Z,83.18
2022-10-11T01:16:12.896Z,83.18
2022-10-11T01:16:22.935Z,83.18
2022-10-11T01:16:32.984Z,83.18
2022-10-11T01:16:43.044Z,83.18
2022-10-11T01:16:53.093Z,83.18
2022-10-11T01:17:03.132Z,83.18
2022-10-11T01:17:13.208Z,83.18
2022-10-11T01:17:23.265Z,83.28
2022-10-11T01:17:33.325Z,83.28
2022-10-11T01:17:43.365Z,83.42
2022-10-11T01:17:53.424Z,83.42
2022-10-11T01:18:03.465Z,83.52
2022-10-11T01:18:13.523Z,83.52
2022-10-11T01:18:23.572Z,83.52
2022-10-11T01:18:33.614Z,83.62
2022-10-11T01:18:43.656Z,83.62
2022-10-11T01:18:53.711Z,83.62
2022-10-11T01:19:03.742Z,83.62
2022-10-11T01:19:13.782Z,83.73
2022-10-11T01:19:23.844Z,83.73
2022-10-11T01:19:33.899Z,83.73
2022-10-11T01:19:43.956Z,83.73
2022-10-11T01:19:54.004Z,83.73
2022-10-11T01:20:04.044Z,83.73
2022-10-11T01:20:14.102Z,83.83
2022-10-11T01:20:24.144Z,83.83
2022-10-11T01:20:34.222Z,83.83
2022-10-11T01:20:44.264Z,83.83
2022-10-11T01:20:54.325Z,83.93
2022-10-11T01:21:04.384Z,83.93
2022-10-11T01:21:14.434Z,83.93
2022-10-11T01:21:24.493Z,83.93
2022-10-11T01:21:34.545Z,83.93
2022-10-11T01:21:44.626Z,83.93
2022-10-11T01:21:54.682Z,83.93
2022-10-11T01:22:04.742Z,83.93
2022-10-11T01:22:14.802Z,84.03
2022-10-11T01:22:24.854Z,84.03
2022-10-11T01:22:34.986Z,84.03
2022-10-11T01:22:45.045Z,84.03
2022-10-11T01:22:55.097Z,84.03
2022-10-11T01:23:05.152Z,84.14
2022-10-11T01:23:15.214Z,84.14
2022-10-11T01:23:25.303Z,84.14
2022-10-11T01:23:35.373Z,84.14
2022-10-11T01:23:45.432Z,84.14
2022-10-11T01:23:55.484Z,84.14
2022-10-11T01:24:08.510Z,84.14
2022-10-11T01:24:15.584Z,84.14
2022-10-11T01:24:25.661Z,84.14
2022-10-11T01:24:35.793Z,84.14
2022-10-11T01:24:45.841Z,84.14
2022-10-11T01:24:55.901Z,84.14
2022-10-11T01:25:05.940Z,84.14
2022-10-11T01:25:15.993Z,84.14
2022-10-11T01:25:26.054Z,84.14
2022-10-11T01:25:36.103Z,84.14
2022-10-11T01:25:46.154Z,84.24
2022-10-11T01:25:56.222Z,84.24
2022-10-11T01:26:06.943Z,84.24
2022-10-11T01:26:16.591Z,84.24
2022-10-11T01:26:26.634Z,84.14
2022-10-11T01:26:36.683Z,84.14
2022-10-11T01:26:46.744Z,84.14
2022-10-11T01:26:56.803Z,84.14
2022-10-11T01:27:06.843Z,84.14
2022-10-11T01:27:16.894Z,84.14
2022-10-11T01:27:26.940Z,84.24
2022-10-11T01:27:36.993Z,84.24
2022-10-11T01:27:47.058Z,84.14
2022-10-11T01:27:57.093Z,84.14
2022-10-11T01:28:07.167Z,84.24
2022-10-11T01:28:17.240Z,84.24
2022-10-11T01:28:27.362Z,84.24
2022-10-11T01:28:37.504Z,84.24
2022-10-11T01:28:47.605Z,84.24
2022-10-11T01:28:57.722Z,84.24
2022-10-11T01:29:07.782Z,84.24
2022-10-11T01:29:17.846Z,84.24
2022-10-11T01:29:27.912Z,84.24
2022-10-11T01:29:37.983Z,84.24
2022-10-11T01:29:48.033Z,84.24
2022-10-11T01:29:58.094Z,84.24
2022-10-11T01:30:08.152Z,84.24
2022-10-11T01:30:18.220Z,84.24
2022-10-11T01:30:28.263Z,84.34
2022-10-11T01:30:38.442Z,84.34
2022-10-11T01:30:48.496Z,84.34
2022-10-11T01:30:58.533Z,84.34
2022-10-11T01:31:08.602Z,84.34
2022-10-11T01:31:18.655Z,84.34
2022-10-11T01:31:28.716Z,84.34
2022-10-11T01:31:38.768Z,84.34
2022-10-11T01:31:48.853Z,84.34
2022-10-11T01:31:58.923Z,84.34
2022-10-11T01:32:08.991Z,84.34
2022-10-11T01:32:19.052Z,84.34
2022-10-11T01:32:29.124Z,84.34
2022-10-11T01:32:39.175Z,84.34
2022-10-11T01:32:49.231Z,84.34
2022-10-11T01:32:59.281Z,84.34
2022-10-11T01:33:09.333Z,84.34
2022-10-11T01:33:19.381Z,84.34
2022-10-11T01:33:29.423Z,84.44
2022-10-11T01:33:39.512Z,84.44
2022-10-11T01:33:49.575Z,84.44
2022-10-11T01:33:59.619Z,84.44
2022-10-11T01:34:09.683Z,84.44
2022-10-11T01:34:19.803Z,84.55
2022-10-11T01:34:29.883Z,84.55
2022-10-11T01:34:39.932Z,84.55
2022-10-11T01:34:50.027Z,84.55
2022-10-11T01:35:00.072Z,84.55
2022-10-11T01:35:10.122Z,84.55
2022-10-11T01:35:20.163Z,84.55
2022-10-11T01:35:30.212Z,84.55
2022-10-11T01:35:40.352Z,84.55
2022-10-11T01:35:50.402Z,84.65
2022-10-11T01:36:00.476Z,84.65
2022-10-11T01:36:10.513Z,84.65
2022-10-11T01:36:20.553Z,84.65
2022-10-11T01:36:30.613Z,84.65
2022-10-11T01:36:40.675Z,84.65
2022-10-11T01:36:50.722Z,84.69
2022-10-11T01:37:00.773Z,84.75
2022-10-11T01:37:10.832Z,84.79
2022-10-11T01:37:20.901Z,84.79
2022-10-11T01:37:31.012Z,84.75
2022-10-11T01:37:41.072Z,84.79
2022-10-11T01:37:51.132Z,84.75
2022-10-11T01:38:01.183Z,84.79
2022-10-11T01:38:11.246Z,84.75
2022-10-11T01:38:21.302Z,84.89
2022-10-11T01:38:31.352Z,84.89
2022-10-11T01:38:41.421Z,84.85
2022-10-11T01:38:51.502Z,84.85
2022-10-11T01:39:01.572Z,84.89
2022-10-11T01:39:11.615Z,84.89
2022-10-11T01:39:21.769Z,84.89
2022-10-11T01:39:31.712Z,84.89
2022-10-11T01:39:41.784Z,84.85
2022-10-11T01:39:51.861Z,84.89
2022-10-11T01:40:01.952Z,84.89
2022-10-11T01:40:12.012Z,84.89
2022-10-11T01:40:22.063Z,84.85
2022-10-11T01:40:32.113Z,84.95
2022-10-11T01:40:42.142Z,84.99
2022-10-11T01:40:52.184Z,84.99
2022-10-11T01:41:02.235Z,84.99
2022-10-11T01:41:12.283Z,84.99
2022-10-11T01:41:22.344Z,84.99
2022-10-11T01:41:32.383Z,84.95
2022-10-11T01:41:42.445Z,84.99
2022-10-11T01:41:52.481Z,84.99
2022-10-11T01:42:02.522Z,84.99
2022-10-11T01:42:12.581Z,84.99
2022-10-11T01:42:22.651Z,84.99
2022-10-11T01:42:32.701Z,84.99
2022-10-11T01:42:42.758Z,84.95
2022-10-11T01:42:52.803Z,84.99
2022-10-11T01:43:02.886Z,84.99
2022-10-11T01:43:12.932Z,84.99
2022-10-11T01:43:22.991Z,84.95
2022-10-11T01:44:10.267Z,85.10
2022-10-11T01:44:20.314Z,85.06
2022-10-11T01:44:30.356Z,85.06
2022-10-11T01:44:41.055Z,85.10
2022-10-11T01:44:50.396Z,85.10
2022-10-11T01:45:00.444Z,85.10
2022-10-11T01:45:10.484Z,85.20
2022-10-11T01:45:20.516Z,85.20
2022-10-11T01:45:30.556Z,85.20
2022-10-11T01:45:40.595Z,85.20
2022-10-11T01:45:50.625Z,85.20
2022-10-11T01:46:00.736Z,85.20
2022-10-11T01:46:10.765Z,85.30
2022-10-11T01:46:20.816Z,85.30
2022-10-11T01:46:30.865Z,85.30
2022-10-11T01:46:40.978Z,85.30
2022-10-11T01:46:51.026Z,85.30
2022-10-11T01:47:01.065Z,85.30
2022-10-11T01:47:11.104Z,85.40
2022-10-11T01:47:21.143Z,85.40
2022-10-11T01:47:31.183Z,85.40
2022-10-11T01:47:41.206Z,85.40
2022-10-11T01:47:51.274Z,85.40
2022-10-11T01:48:01.328Z,85.40
2022-10-11T01:48:11.389Z,85.40
2022-10-11T01:48:21.427Z,85.50
2022-10-11T01:48:31.469Z,85.50
2022-10-11T01:48:41.504Z,85.50
2022-10-11T01:48:51.559Z,85.50
2022-10-11T01:49:01.637Z,85.50
2022-10-11T01:49:11.686Z,85.50
2022-10-11T01:49:21.734Z,85.61
2022-10-11T01:49:31.776Z,85.61
2022-10-11T01:49:41.816Z,85.61
2022-10-11T01:49:51.854Z,85.61
2022-10-11T01:50:01.886Z,85.61
2022-10-11T01:50:11.925Z,85.61
2022-10-11T01:50:21.956Z,85.61
2022-10-11T01:50:32.056Z,85.61
2022-10-11T01:50:42.135Z,85.71
2022-10-11T01:50:52.164Z,85.71
2022-10-11T01:51:02.195Z,85.81
2022-10-11T01:51:12.246Z,85.81
2022-10-11T01:51:22.266Z,85.91
2022-10-11T01:51:32.304Z,85.91
2022-10-11T01:51:47.000Z,85.91
2022-10-11T01:51:52.513Z,85.91
2022-10-11T01:52:02.536Z,86.02
2022-10-11T01:52:12.577Z,86.02
2022-10-11T01:52:22.607Z,86.02
2022-10-11T01:52:32.646Z,86.02
2022-10-11T01:52:42.706Z,86.02
2022-10-11T01:52:52.764Z,86.02
2022-10-11T01:53:02.806Z,86.02
2022-10-11T01:53:12.836Z,86.02
2022-10-11T01:53:22.906Z,86.02
2022-10-11T01:53:32.946Z,86.02
2022-10-11T01:53:42.976Z,86.02
2022-10-11T01:53:53.145Z,86.02
2022-10-11T01:54:03.172Z,86.02
2022-10-11T01:54:13.205Z,86.02
2022-10-11T01:54:23.235Z,86.02
2022-10-11T01:54:56.716Z,86.02
2022-10-11T01:55:08.260Z,86.02
2022-10-11T01:55:09.292Z,86.02
2022-10-11T01:55:10.326Z,86.02
2022-10-11T01:55:16.355Z,86.02
2022-10-11T01:55:26.385Z,86.02
2022-10-11T01:55:36.430Z,86.02
2022-10-11T01:55:46.537Z,86.02
2022-10-11T01:55:56.584Z,86.02
2022-10-11T01:56:07.241Z,86.02
2022-10-11T01:56:16.673Z,86.02
2022-10-11T01:56:26.705Z,86.02
2022-10-11T01:56:36.766Z,86.02
2022-10-11T01:56:46.804Z,86.02
2022-10-11T01:56:56.844Z,86.02
2022-10-11T01:57:06.886Z,86.02
2022-10-11T01:57:16.924Z,86.02
2022-10-11T01:57:26.985Z,86.02
2022-10-11T01:57:37.036Z,86.02
2022-10-11T01:57:47.086Z,86.02
2022-10-11T01:57:57.131Z,86.12
2022-10-11T01:58:07.182Z,86.12
2022-10-11T01:58:17.214Z,86.12
2022-10-11T01:58:27.273Z,86.12
2022-10-11T01:58:37.315Z,86.12
2022-10-11T01:58:47.367Z,86.12
2022-10-11T01:58:57.416Z,86.12
2022-10-11T01:59:07.458Z,86.12
2022-10-11T01:59:17.495Z,86.12
2022-10-11T01:59:27.535Z,86.12
2022-10-11T01:59:37.575Z,86.22
2022-10-11T01:59:47.625Z,86.22
2022-10-11T01:59:57.694Z,86.22
2022-10-11T02:00:07.744Z,86.22
2022-10-11T02:00:17.777Z,86.22
2022-10-11T02:00:27.833Z,86.12
2022-10-11T02:00:37.877Z,86.12
2022-10-11T02:00:47.926Z,86.02
2022-10-11T02:00:58.050Z,86.02
2022-10-11T02:01:08.072Z,86.02
2022-10-11T02:01:18.171Z,86.02
2022-10-11T02:01:28.284Z,85.91
2022-10-11T02:01:38.442Z,85.91
2022-10-11T02:01:48.549Z,85.91
2022-10-11T02:01:58.598Z,85.91
2022-10-11T02:02:08.651Z,85.91
2022-10-11T02:02:18.712Z,85.81
2022-10-11T02:02:28.783Z,85.81
2022-10-11T02:02:38.828Z,85.81
2022-10-11T02:02:48.874Z,85.81
2022-10-11T02:02:58.915Z,85.81
2022-10-11T02:03:08.965Z,85.81
2022-10-11T02:03:19.005Z,85.81
2022-10-11T02:03:29.066Z,85.81
2022-10-11T02:03:39.154Z,85.81
2022-10-11T02:03:49.212Z,85.81
2022-10-11T02:03:59.264Z,85.81
2022-10-11T02:04:09.312Z,85.81
2022-10-11T02:04:19.356Z,85.81
2022-10-11T02:04:29.415Z,85.71
2022-10-11T02:04:39.595Z,85.71
2022-10-11T02:04:49.652Z,85.81
2022-10-11T02:04:59.704Z,85.71
2022-10-11T02:05:09.754Z,85.81
2022-10-11T02:05:19.814Z,85.71
2022-10-11T02:05:29.864Z,85.71
2022-10-11T02:05:39.934Z,85.71
2022-10-11T02:05:49.983Z,85.71
2022-10-11T02:06:00.042Z,85.71
2022-10-11T02:06:10.056Z,85.71
2022-10-11T02:06:20.122Z,85.71
2022-10-11T02:06:30.164Z,85.71
2022-10-11T02:06:40.213Z,85.71
2022-10-11T02:06:50.261Z,85.71
2022-10-11T02:07:00.322Z,85.71
2022-10-11T02:07:10.394Z,85.71
2022-10-11T02:07:20.431Z,85.71
2022-10-11T02:07:30.483Z,85.71
2022-10-11T02:07:40.542Z,85.71
2022-10-11T02:07:50.584Z,85.71
2022-10-11T02:08:00.634Z,85.61
2022-10-11T02:08:10.685Z,85.61
2022-10-11T02:08:20.742Z,85.61
2022-10-11T02:08:30.805Z,85.61
2022-10-11T02:08:40.864Z,85.50
2022-10-11T02:08:50.903Z,85.50
2022-10-11T02:09:04.490Z,85.40
2022-10-11T02:09:11.915Z,85.40
2022-10-11T02:09:21.977Z,85.40
2022-10-11T02:09:32.034Z,85.40
2022-10-11T02:09:42.092Z,85.30
2022-10-11T02:09:52.144Z,85.30
2022-10-11T02:10:02.204Z,85.20
2022-10-11T02:10:12.254Z,85.20